sensor_id;sensor_type;location;lat;lon;timestamp;pressure;altitude;pressure_sealevel;temperature;humidity
22031;BME280;11179;52.106;21.024;2023-02-20T00:01:29;100558.56;;;1.17;58.56
22031;BME280;11179;52.106;21.024;2023-02-20T00:03:55;100557.91;;;1.15;58.88
22031;BME280;11179;52.106;21.024;2023-02-20T00:06:20;100559.13;;;1.13;58.64
22031;BME280;11179;52.106;21.024;2023-02-20T00:08:46;100555.59;;;1.12;59.26
22031;BME280;11179;52.106;21.024;2023-02-20T00:11:11;100550.19;;;1.12;59.39
22031;BME280;11179;52.106;21.024;2023-02-20T00:13:37;100552.69;;;1.14;59.42
22031;BME280;11179;52.106;21.024;2023-02-20T00:16:02;100554.19;;;1.16;59.51
22031;BME280;11179;52.106;21.024;2023-02-20T00:18:27;100558.75;;;1.16;59.41
22031;BME280;11179;52.106;21.024;2023-02-20T00:20:53;100541.69;;;1.15;59.40
22031;BME280;11179;52.106;21.024;2023-02-20T00:23:18;100538.59;;;1.18;59.70
22031;BME280;11179;52.106;21.024;2023-02-20T00:25:44;100534.22;;;1.17;59.63
22031;BME280;11179;52.106;21.024;2023-02-20T00:28:09;100526.34;;;1.22;59.48
22031;BME280;11179;52.106;21.024;2023-02-20T00:30:35;100531.75;;;1.22;59.21
22031;BME280;11179;52.106;21.024;2023-02-20T00:33:01;100528.03;;;1.23;59.56
22031;BME280;11179;52.106;21.024;2023-02-20T00:35:26;100542.00;;;1.27;59.48
22031;BME280;11179;52.106;21.024;2023-02-20T00:37:53;100537.91;;;1.31;59.37
22031;BME280;11179;52.106;21.024;2023-02-20T00:40:21;100531.03;;;1.35;59.05
22031;BME280;11179;52.106;21.024;2023-02-20T00:42:47;100543.72;;;1.35;59.13
22031;BME280;11179;52.106;21.024;2023-02-20T00:45:14;100539.34;;;1.34;58.90
22031;BME280;11179;52.106;21.024;2023-02-20T00:47:41;100546.06;;;1.38;58.80
22031;BME280;11179;52.106;21.024;2023-02-20T00:50:07;100547.28;;;1.35;58.67
22031;BME280;11179;52.106;21.024;2023-02-20T00:52:32;100552.50;;;1.37;58.57
22031;BME280;11179;52.106;21.024;2023-02-20T00:54:58;100550.63;;;1.37;58.49
22031;BME280;11179;52.106;21.024;2023-02-20T00:57:23;100548.56;;;1.39;58.57
22031;BME280;11179;52.106;21.024;2023-02-20T00:59:49;100547.75;;;1.39;58.50
22031;BME280;11179;52.106;21.024;2023-02-20T01:02:14;100544.66;;;1.42;58.42
22031;BME280;11179;52.106;21.024;2023-02-20T01:04:40;100544.84;;;1.40;58.40
22031;BME280;11179;52.106;21.024;2023-02-20T01:07:05;100541.94;;;1.42;58.29
22031;BME280;11179;52.106;21.024;2023-02-20T01:09:30;100538.22;;;1.43;58.33
22031;BME280;11179;52.106;21.024;2023-02-20T01:11:56;100526.34;;;1.44;58.07
22031;BME280;11179;52.106;21.024;2023-02-20T01:14:21;100537.00;;;1.45;58.06
22031;BME280;11179;52.106;21.024;2023-02-20T01:16:49;100535.94;;;1.46;57.99
22031;BME280;11179;52.106;21.024;2023-02-20T01:19:16;100535.72;;;1.48;57.99
22031;BME280;11179;52.106;21.024;2023-02-20T01:21:41;100524.50;;;1.44;57.72
22031;BME280;11179;52.106;21.024;2023-02-20T01:24:06;100520.31;;;1.42;57.79
22031;BME280;11179;52.106;21.024;2023-02-20T01:26:32;100535.34;;;1.51;57.77
22031;BME280;11179;52.106;21.024;2023-02-20T01:28:57;100529.09;;;1.50;57.68
22031;BME280;11179;52.106;21.024;2023-02-20T01:31:22;100519.50;;;1.48;57.66
22031;BME280;11179;52.106;21.024;2023-02-20T01:33:48;100519.13;;;1.51;57.57
22031;BME280;11179;52.106;21.024;2023-02-20T01:36:13;100517.63;;;1.48;57.54
22031;BME280;11179;52.106;21.024;2023-02-20T01:38:40;100520.16;;;1.50;57.58
22031;BME280;11179;52.106;21.024;2023-02-20T01:41:10;100519.13;;;1.51;57.69
22031;BME280;11179;52.106;21.024;2023-02-20T01:43:35;100520.97;;;1.50;57.47
22031;BME280;11179;52.106;21.024;2023-02-20T01:48:54;100530.59;;;1.53;57.45
22031;BME280;11179;52.106;21.024;2023-02-20T01:51:23;100527.88;;;1.53;57.53
22031;BME280;11179;52.106;21.024;2023-02-20T01:53:48;100515.00;;;1.55;57.41
22031;BME280;11179;52.106;21.024;2023-02-20T01:56:14;100520.41;;;1.55;57.72
22031;BME280;11179;52.106;21.024;2023-02-20T01:58:43;100510.41;;;1.55;57.49
22031;BME280;11179;52.106;21.024;2023-02-20T02:01:10;100503.78;;;1.58;57.64
22031;BME280;11179;52.106;21.024;2023-02-20T02:03:38;100500.84;;;1.59;57.46
22031;BME280;11179;52.106;21.024;2023-02-20T02:06:06;100493.56;;;1.60;57.54
22031;BME280;11179;52.106;21.024;2023-02-20T02:08:36;100495.06;;;1.63;57.45
22031;BME280;11179;52.106;21.024;2023-02-20T02:11:06;100502.53;;;1.61;57.60
22031;BME280;11179;52.106;21.024;2023-02-20T02:13:34;100503.78;;;1.58;57.24
22031;BME280;11179;52.106;21.024;2023-02-20T02:16:19;100502.13;;;1.57;57.66
22031;BME280;11179;52.106;21.024;2023-02-20T02:21:54;100485.03;;;1.56;57.62
22031;BME280;11179;52.106;21.024;2023-02-20T02:30:10;100496.25;;;1.53;57.68
22031;BME280;11179;52.106;21.024;2023-02-20T02:33:10;100487.69;;;1.50;57.63
22031;BME280;11179;52.106;21.024;2023-02-20T02:38:41;100483.28;;;1.49;57.70
22031;BME280;11179;52.106;21.024;2023-02-20T02:41:21;100487.03;;;1.48;57.78
22031;BME280;11179;52.106;21.024;2023-02-20T02:46:53;100480.78;;;1.47;57.62
22031;BME280;11179;52.106;21.024;2023-02-20T02:49:24;100482.88;;;1.45;57.84
22031;BME280;11179;52.106;21.024;2023-02-20T02:51:53;100492.63;;;1.46;57.90
22031;BME280;11179;52.106;21.024;2023-02-20T02:54:24;100481.63;;;1.48;57.80
22031;BME280;11179;52.106;21.024;2023-02-20T02:57:25;100498.69;;;1.48;57.75
22031;BME280;11179;52.106;21.024;2023-02-20T03:02:33;100487.69;;;1.50;57.68
22031;BME280;11179;52.106;21.024;2023-02-20T03:05:03;100486.66;;;1.51;57.92
22031;BME280;11179;52.106;21.024;2023-02-20T03:07:31;100483.75;;;1.52;57.87
22031;BME280;11179;52.106;21.024;2023-02-20T03:10:03;100491.66;;;1.54;57.89
22031;BME280;11179;52.106;21.024;2023-02-20T03:12:30;100484.59;;;1.53;57.81
22031;BME280;11179;52.106;21.024;2023-02-20T03:14:59;100477.69;;;1.50;57.80
22031;BME280;11179;52.106;21.024;2023-02-20T03:17:49;100493.75;;;1.52;57.79
22031;BME280;11179;52.106;21.024;2023-02-20T03:20:20;100491.88;;;1.52;57.93
22031;BME280;11179;52.106;21.024;2023-02-20T03:22:55;100489.16;;;1.52;57.96
22031;BME280;11179;52.106;21.024;2023-02-20T03:32:58;100469.38;;;1.52;57.89
22031;BME280;11179;52.106;21.024;2023-02-20T03:35:47;100479.19;;;1.53;57.84
22031;BME280;11179;52.106;21.024;2023-02-20T03:38:33;100487.94;;;1.55;57.70
22031;BME280;11179;52.106;21.024;2023-02-20T03:41:21;100481.50;;;1.56;57.71
22031;BME280;11179;52.106;21.024;2023-02-20T03:44:07;100492.31;;;1.56;57.77
22031;BME280;11179;52.106;21.024;2023-02-20T03:46:35;100487.94;;;1.55;57.79
22031;BME280;11179;52.106;21.024;2023-02-20T03:49:05;100485.81;;;1.50;57.96
22031;BME280;11179;52.106;21.024;2023-02-20T03:51:52;100483.94;;;1.51;58.04
22031;BME280;11179;52.106;21.024;2023-02-20T03:54:25;100481.00;;;1.46;57.90
22031;BME280;11179;52.106;21.024;2023-02-20T03:56:56;100479.09;;;1.46;57.88
22031;BME280;11179;52.106;21.024;2023-02-20T03:59:32;100476.63;;;1.45;57.92
22031;BME280;11179;52.106;21.024;2023-02-20T04:02:03;100475.53;;;1.39;58.16
22031;BME280;11179;52.106;21.024;2023-02-20T04:04:36;100474.03;;;1.37;58.13
22031;BME280;11179;52.106;21.024;2023-02-20T04:07:06;100480.28;;;1.37;58.06
22031;BME280;11179;52.106;21.024;2023-02-20T04:09:33;100473.41;;;1.35;58.15
22031;BME280;11179;52.106;21.024;2023-02-20T04:12:31;100471.94;;;1.32;58.45
22031;BME280;11179;52.106;21.024;2023-02-20T04:14:59;100471.03;;;1.25;58.36
22031;BME280;11179;52.106;21.024;2023-02-20T04:17:31;100469.16;;;1.26;58.53
22031;BME280;11179;52.106;21.024;2023-02-20T04:19:59;100467.13;;;1.28;58.54
22031;BME280;11179;52.106;21.024;2023-02-20T04:22:29;100460.41;;;1.23;58.25
22031;BME280;11179;52.106;21.024;2023-02-20T04:24:59;100463.13;;;1.23;58.33
22031;BME280;11179;52.106;21.024;2023-02-20T04:27:26;100455.38;;;1.20;58.80
22031;BME280;11179;52.106;21.024;2023-02-20T04:29:52;100451.03;;;1.19;58.66
22031;BME280;11179;52.106;21.024;2023-02-20T04:32:17;100456.44;;;1.19;58.79
22031;BME280;11179;52.106;21.024;2023-02-20T04:34:42;100451.41;;;1.16;58.85
22031;BME280;11179;52.106;21.024;2023-02-20T04:37:13;100447.88;;;1.16;58.97
22031;BME280;11179;52.106;21.024;2023-02-20T04:39:39;100448.06;;;1.14;58.87
22031;BME280;11179;52.106;21.024;2023-02-20T04:42:05;100447.03;;;1.15;58.76
22031;BME280;11179;52.106;21.024;2023-02-20T04:44:30;100425.97;;;1.11;58.92
22031;BME280;11179;52.106;21.024;2023-02-20T04:47:05;100430.94;;;1.07;59.09
22031;BME280;11179;52.106;21.024;2023-02-20T04:49:31;100433.50;;;1.15;58.91
22031;BME280;11179;52.106;21.024;2023-02-20T04:51:56;100413.88;;;1.07;59.18
22031;BME280;11179;52.106;21.024;2023-02-20T04:54:22;100428.56;;;1.19;59.15
22031;BME280;11179;52.106;21.024;2023-02-20T04:56:48;100417.75;;;1.19;59.02
22031;BME280;11179;52.106;21.024;2023-02-20T04:59:13;100422.53;;;1.23;59.32
22031;BME280;11179;52.106;21.024;2023-02-20T05:01:38;100415.72;;;1.28;59.20
22031;BME280;11179;52.106;21.024;2023-02-20T05:04:04;100423.63;;;1.29;59.40
22031;BME280;11179;52.106;21.024;2023-02-20T05:06:30;100420.47;;;1.26;59.39
22031;BME280;11179;52.106;21.024;2023-02-20T05:08:55;100429.09;;;1.36;59.30
22031;BME280;11179;52.106;21.024;2023-02-20T05:11:21;100415.56;;;1.36;59.37
22031;BME280;11179;52.106;21.024;2023-02-20T05:13:46;100421.22;;;1.41;59.55
22031;BME280;11179;52.106;21.024;2023-02-20T05:16:12;100416.06;;;1.46;59.75
22031;BME280;11179;52.106;21.024;2023-02-20T05:18:38;100405.25;;;1.46;59.84
22031;BME280;11179;52.106;21.024;2023-02-20T05:21:03;100407.97;;;1.52;59.49
22031;BME280;11179;52.106;21.024;2023-02-20T05:23:47;100391.28;;;1.49;59.82
22031;BME280;11179;52.106;21.024;2023-02-20T05:26:17;100387.81;;;1.55;59.86
22031;BME280;11179;52.106;21.024;2023-02-20T05:28:43;100395.94;;;1.62;59.82
22031;BME280;11179;52.106;21.024;2023-02-20T05:31:09;100395.94;;;1.62;59.67
22031;BME280;11179;52.106;21.024;2023-02-20T05:33:34;100394.72;;;1.64;59.72
22031;BME280;11179;52.106;21.024;2023-02-20T05:36:00;100398.53;;;1.70;59.83
22031;BME280;11179;52.106;21.024;2023-02-20T05:38:25;100403.31;;;1.74;59.93
22031;BME280;11179;52.106;21.024;2023-02-20T05:40:50;100404.59;;;1.78;59.97
22031;BME280;11179;52.106;21.024;2023-02-20T05:43:16;100406.50;;;1.84;59.77
22031;BME280;11179;52.106;21.024;2023-02-20T05:45:42;100403.38;;;1.87;59.66
22031;BME280;11179;52.106;21.024;2023-02-20T05:48:07;100388.16;;;1.86;59.64
22031;BME280;11179;52.106;21.024;2023-02-20T05:50:33;100397.38;;;1.92;59.84
22031;BME280;11179;52.106;21.024;2023-02-20T05:52:58;100379.44;;;1.91;59.80
22031;BME280;11179;52.106;21.024;2023-02-20T05:55:23;100376.16;;;1.96;59.85
22031;BME280;11179;52.106;21.024;2023-02-20T05:57:49;100371.19;;;1.99;59.73
22031;BME280;11179;52.106;21.024;2023-02-20T06:00:14;100379.72;;;2.03;59.67
22031;BME280;11179;52.106;21.024;2023-02-20T06:02:39;100378.03;;;2.02;59.72
22031;BME280;11179;52.106;21.024;2023-02-20T06:05:05;100362.63;;;2.02;59.61
22031;BME280;11179;52.106;21.024;2023-02-20T06:07:32;100368.28;;;2.07;59.71
22031;BME280;11179;52.106;21.024;2023-02-20T06:09:57;100360.78;;;2.09;59.65
22031;BME280;11179;52.106;21.024;2023-02-20T06:12:22;100362.03;;;2.13;59.87
22031;BME280;11179;52.106;21.024;2023-02-20T06:14:48;100365.38;;;2.15;59.55
22031;BME280;11179;52.106;21.024;2023-02-20T06:17:13;100367.47;;;2.20;59.76
22031;BME280;11179;52.106;21.024;2023-02-20T06:19:38;100366.25;;;2.22;59.80
22031;BME280;11179;52.106;21.024;2023-02-20T06:22:04;100366.06;;;2.30;59.49
22031;BME280;11179;52.106;21.024;2023-02-20T06:24:29;100354.59;;;2.35;59.45
22031;BME280;11179;52.106;21.024;2023-02-20T06:26:55;100365.25;;;2.43;59.79
22031;BME280;11179;52.106;21.024;2023-02-20T06:29:20;100352.31;;;2.45;59.67
22031;BME280;11179;52.106;21.024;2023-02-20T06:31:45;100343.16;;;2.53;59.46
22031;BME280;11179;52.106;21.024;2023-02-20T06:34:11;100341.50;;;2.58;59.37
22031;BME280;11179;52.106;21.024;2023-02-20T06:36:39;100350.69;;;2.64;59.36
22031;BME280;11179;52.106;21.024;2023-02-20T06:39:06;100344.44;;;2.63;59.38
22031;BME280;11179;52.106;21.024;2023-02-20T06:41:32;100333.38;;;2.72;59.35
22031;BME280;11179;52.106;21.024;2023-02-20T06:43:57;100331.94;;;2.76;59.29
22031;BME280;11179;52.106;21.024;2023-02-20T06:46:23;100329.84;;;2.84;59.27
22031;BME280;11179;52.106;21.024;2023-02-20T06:48:51;100321.50;;;2.86;58.96
22031;BME280;11179;52.106;21.024;2023-02-20T06:51:18;100326.72;;;2.87;59.04
22031;BME280;11179;52.106;21.024;2023-02-20T06:53:44;100332.38;;;2.92;58.95
22031;BME280;11179;52.106;21.024;2023-02-20T06:56:10;100332.13;;;2.94;59.08
22031;BME280;11179;52.106;21.024;2023-02-20T06:58:39;100327.53;;;3.01;58.89
22031;BME280;11179;52.106;21.024;2023-02-20T07:01:05;100326.28;;;3.10;58.61
22031;BME280;11179;52.106;21.024;2023-02-20T07:03:30;100327.53;;;3.14;58.80
22031;BME280;11179;52.106;21.024;2023-02-20T07:05:55;100312.94;;;3.15;58.62
22031;BME280;11179;52.106;21.024;2023-02-20T07:08:21;100311.25;;;3.14;58.48
22031;BME280;11179;52.106;21.024;2023-02-20T07:10:46;100319.38;;;3.27;58.37
22031;BME280;11179;52.106;21.024;2023-02-20T07:13:11;100312.91;;;3.28;58.32
22031;BME280;11179;52.106;21.024;2023-02-20T07:15:37;100312.25;;;3.33;58.59
22031;BME280;11179;52.106;21.024;2023-02-20T07:18:02;100316.22;;;3.37;58.46
22031;BME280;11179;52.106;21.024;2023-02-20T07:20:27;100298.69;;;3.33;58.21
22031;BME280;11179;52.106;21.024;2023-02-20T07:22:53;100297.63;;;3.41;58.23
22031;BME280;11179;52.106;21.024;2023-02-20T07:25:19;100304.06;;;3.46;58.03
22031;BME280;11179;52.106;21.024;2023-02-20T07:27:44;100288.59;;;3.53;58.24
22031;BME280;11179;52.106;21.024;2023-02-20T07:30:10;100295.69;;;3.54;58.10
22031;BME280;11179;52.106;21.024;2023-02-20T07:32:35;100294.44;;;3.57;58.13
22031;BME280;11179;52.106;21.024;2023-02-20T07:35:01;100287.94;;;3.64;58.25
22031;BME280;11179;52.106;21.024;2023-02-20T07:37:26;100293.53;;;3.76;57.76
22031;BME280;11179;52.106;21.024;2023-02-20T07:39:51;100291.00;;;3.81;57.68
22031;BME280;11179;52.106;21.024;2023-02-20T07:42:17;100287.22;;;3.95;57.69
22031;BME280;11179;52.106;21.024;2023-02-20T07:44:43;100299.47;;;4.04;57.66
22031;BME280;11179;52.106;21.024;2023-02-20T07:47:11;100300.03;;;4.13;57.29
22031;BME280;11179;52.106;21.024;2023-02-20T07:49:36;100289.19;;;4.13;57.41
22031;BME280;11179;52.106;21.024;2023-02-20T07:52:02;100299.22;;;4.13;57.39
22031;BME280;11179;52.106;21.024;2023-02-20T07:54:27;100286.31;;;4.08;57.52
22031;BME280;11179;52.106;21.024;2023-02-20T07:56:53;100265.81;;;4.05;57.31
22031;BME280;11179;52.106;21.024;2023-02-20T07:59:18;100261.63;;;4.10;57.30
22031;BME280;11179;52.106;21.024;2023-02-20T08:01:44;100260.31;;;4.19;57.13
22031;BME280;11179;52.106;21.024;2023-02-20T08:04:09;100250.25;;;4.26;57.11
22031;BME280;11179;52.106;21.024;2023-02-20T08:06:34;100255.84;;;4.31;57.00
22031;BME280;11179;52.106;21.024;2023-02-20T08:09:00;100239.53;;;4.31;57.21
22031;BME280;11179;52.106;21.024;2023-02-20T08:11:25;100236.59;;;4.32;57.36
22031;BME280;11179;52.106;21.024;2023-02-20T08:13:51;100230.09;;;4.33;57.08
22031;BME280;11179;52.106;21.024;2023-02-20T08:16:20;100217.22;;;4.47;56.98
22031;BME280;11179;52.106;21.024;2023-02-20T08:18:45;100219.63;;;4.62;57.04
22031;BME280;11179;52.106;21.024;2023-02-20T08:21:11;100203.84;;;4.70;56.68
22031;BME280;11179;52.106;21.024;2023-02-20T08:23:36;100206.44;;;4.84;56.96
22031;BME280;11179;52.106;21.024;2023-02-20T08:26:03;100192.78;;;4.90;56.69
22031;BME280;11179;52.106;21.024;2023-02-20T08:28:29;100204.41;;;4.97;56.77
22031;BME280;11179;52.106;21.024;2023-02-20T08:30:54;100205.69;;;4.95;56.57
22031;BME280;11179;52.106;21.024;2023-02-20T08:33:19;100191.78;;;5.03;56.79
22031;BME280;11179;52.106;21.024;2023-02-20T08:35:45;100181.03;;;5.08;56.60
22031;BME280;11179;52.106;21.024;2023-02-20T08:38:27;100177.34;;;5.02;57.10
22031;BME280;11179;52.106;21.024;2023-02-20T08:40:53;100178.63;;;5.00;57.05
22031;BME280;11179;52.106;21.024;2023-02-20T08:43:18;100162.97;;;4.95;56.91
22031;BME280;11179;52.106;21.024;2023-02-20T08:45:44;100167.47;;;4.90;57.22
22031;BME280;11179;52.106;21.024;2023-02-20T08:48:09;100167.97;;;4.80;57.38
22031;BME280;11179;52.106;21.024;2023-02-20T08:50:34;100161.38;;;4.69;57.60
22031;BME280;11179;52.106;21.024;2023-02-20T08:53:00;100162.72;;;4.60;57.99
22031;BME280;11179;52.106;21.024;2023-02-20T08:55:26;100163.84;;;4.53;58.70
22031;BME280;11179;52.106;21.024;2023-02-20T08:57:51;100161.03;;;4.41;59.01
22031;BME280;11179;52.106;21.024;2023-02-20T09:00:17;100162.06;;;4.40;59.09
22031;BME280;11179;52.106;21.024;2023-02-20T09:02:43;100150.63;;;4.38;59.60
22031;BME280;11179;52.106;21.024;2023-02-20T09:05:10;100154.22;;;4.32;59.74
22031;BME280;11179;52.106;21.024;2023-02-20T09:07:36;100148.88;;;4.19;60.47
22031;BME280;11179;52.106;21.024;2023-02-20T09:10:01;100143.13;;;4.08;60.61
22031;BME280;11179;52.106;21.024;2023-02-20T09:12:27;100129.81;;;4.00;60.82
22031;BME280;11179;52.106;21.024;2023-02-20T09:14:52;100122.13;;;3.97;61.01
22031;BME280;11179;52.106;21.024;2023-02-20T09:17:17;100108.56;;;3.91;62.00
22031;BME280;11179;52.106;21.024;2023-02-20T09:19:42;100100.00;;;3.87;61.89
22031;BME280;11179;52.106;21.024;2023-02-20T09:22:08;100090.63;;;3.90;62.41
22031;BME280;11179;52.106;21.024;2023-02-20T09:24:33;100083.34;;;3.84;62.66
22031;BME280;11179;52.106;21.024;2023-02-20T09:27:00;100086.28;;;3.82;62.68
22031;BME280;11179;52.106;21.024;2023-02-20T09:29:26;100081.28;;;3.79;63.31
22031;BME280;11179;52.106;21.024;2023-02-20T09:31:51;100071.06;;;3.74;63.69
22031;BME280;11179;52.106;21.024;2023-02-20T09:34:17;100067.50;;;3.74;63.78
22031;BME280;11179;52.106;21.024;2023-02-20T09:36:42;100051.06;;;3.69;63.97
22031;BME280;11179;52.106;21.024;2023-02-20T09:39:07;100052.56;;;3.65;64.02
22031;BME280;11179;52.106;21.024;2023-02-20T09:42:02;100038.53;;;3.68;64.19
22031;BME280;11179;52.106;21.024;2023-02-20T09:44:59;100029.47;;;3.56;64.49
22031;BME280;11179;52.106;21.024;2023-02-20T09:50:44;100000.31;;;3.45;64.38
22031;BME280;11179;52.106;21.024;2023-02-20T09:53:34;99998.06;;;3.35;64.63
22031;BME280;11179;52.106;21.024;2023-02-20T09:56:02;99994.09;;;3.37;64.84
22031;BME280;11179;52.106;21.024;2023-02-20T09:58:40;99972.50;;;3.24;64.51
22031;BME280;11179;52.106;21.024;2023-02-20T10:01:08;99964.00;;;3.14;65.05
22031;BME280;11179;52.106;21.024;2023-02-20T10:03:43;99959.91;;;3.05;65.50
22031;BME280;11179;52.106;21.024;2023-02-20T10:06:18;99961.38;;;3.01;65.46
22031;BME280;11179;52.106;21.024;2023-02-20T10:08:46;99949.09;;;2.98;65.70
22031;BME280;11179;52.106;21.024;2023-02-20T10:16:54;99930.16;;;2.92;65.91
22031;BME280;11179;52.106;21.024;2023-02-20T10:19:46;99923.50;;;2.88;65.88
22031;BME280;11179;52.106;21.024;2023-02-20T10:22:34;99900.16;;;2.87;65.86
22031;BME280;11179;52.106;21.024;2023-02-20T10:25:19;99887.44;;;2.87;65.95
22031;BME280;11179;52.106;21.024;2023-02-20T10:27:52;99886.00;;;2.85;66.35
22031;BME280;11179;52.106;21.024;2023-02-20T10:36:16;99876.91;;;2.73;67.24
22031;BME280;11179;52.106;21.024;2023-02-20T10:38:52;99875.88;;;2.67;67.56
22031;BME280;11179;52.106;21.024;2023-02-20T10:44:16;99860.84;;;2.71;67.32
22031;BME280;11179;52.106;21.024;2023-02-20T10:46:55;99855.66;;;2.70;67.80
22031;BME280;11179;52.106;21.024;2023-02-20T10:51:58;99853.38;;;2.66;68.64
22031;BME280;11179;52.106;21.024;2023-02-20T10:54:32;99851.94;;;2.64;68.59
22031;BME280;11179;52.106;21.024;2023-02-20T10:57:05;99835.47;;;2.65;68.66
22031;BME280;11179;52.106;21.024;2023-02-20T11:00:06;99819.22;;;2.65;68.56
22031;BME280;11179;52.106;21.024;2023-02-20T11:02:38;99813.16;;;2.63;68.82
22031;BME280;11179;52.106;21.024;2023-02-20T11:05:12;99809.41;;;2.64;69.02
22031;BME280;11179;52.106;21.024;2023-02-20T11:07:37;99800.00;;;2.67;68.82
22031;BME280;11179;52.106;21.024;2023-02-20T11:10:04;99797.97;;;2.62;68.88
22031;BME280;11179;52.106;21.024;2023-02-20T11:12:33;99791.09;;;2.60;69.21
22031;BME280;11179;52.106;21.024;2023-02-20T11:15:12;99776.72;;;2.59;69.36
22031;BME280;11179;52.106;21.024;2023-02-20T11:17:39;99775.66;;;2.60;69.13
22031;BME280;11179;52.106;21.024;2023-02-20T11:20:07;99776.31;;;2.56;69.26
22031;BME280;11179;52.106;21.024;2023-02-20T11:22:51;99759.84;;;2.57;69.44
22031;BME280;11179;52.106;21.024;2023-02-20T11:25:26;99736.72;;;2.55;69.64
22031;BME280;11179;52.106;21.024;2023-02-20T11:27:55;99730.63;;;2.59;69.62
22031;BME280;11179;52.106;21.024;2023-02-20T11:30:35;99708.34;;;2.57;69.48
22031;BME280;11179;52.106;21.024;2023-02-20T11:35:30;99633.53;;;2.56;69.70
22031;BME280;11179;52.106;21.024;2023-02-20T11:43:36;99585.72;;;2.80;70.02
22031;BME280;11179;52.106;21.024;2023-02-20T11:46:15;99603.78;;;2.86;70.21
22031;BME280;11179;52.106;21.024;2023-02-20T11:49:03;99603.13;;;2.91;70.66
22031;BME280;11179;52.106;21.024;2023-02-20T11:51:41;99579.00;;;3.01;70.89
22031;BME280;11179;52.106;21.024;2023-02-20T11:54:14;99556.75;;;3.11;70.71
22031;BME280;11179;52.106;21.024;2023-02-20T11:59:28;99541.50;;;3.28;70.86
22031;BME280;11179;52.106;21.024;2023-02-20T12:01:54;99535.63;;;3.31;71.22
22031;BME280;11179;52.106;21.024;2023-02-20T12:04:23;99525.84;;;3.42;70.74
22031;BME280;11179;52.106;21.024;2023-02-20T12:06:49;99526.06;;;3.40;70.90
22031;BME280;11179;52.106;21.024;2023-02-20T12:09:21;99514.53;;;3.45;71.25
22031;BME280;11179;52.106;21.024;2023-02-20T12:11:51;99496.25;;;3.52;71.72
22031;BME280;11179;52.106;21.024;2023-02-20T12:14:18;99494.72;;;3.56;71.49
22031;BME280;11179;52.106;21.024;2023-02-20T12:20:22;99463.81;;;3.80;71.79
22031;BME280;11179;52.106;21.024;2023-02-20T12:22:35;99451.47;;;3.96;71.76
22031;BME280;11179;52.106;21.024;2023-02-20T12:25:33;99437.38;;;4.11;71.63
22031;BME280;11179;52.106;21.024;2023-02-20T12:28:10;99419.06;;;4.18;71.71
22031;BME280;11179;52.106;21.024;2023-02-20T12:33:47;99392.56;;;4.36;71.75
22031;BME280;11179;52.106;21.024;2023-02-20T12:36:28;99407.88;;;4.42;71.86
22031;BME280;11179;52.106;21.024;2023-02-20T12:39:05;99412.13;;;4.50;71.65
22031;BME280;11179;52.106;21.024;2023-02-20T12:41:35;99402.97;;;4.56;71.60
22031;BME280;11179;52.106;21.024;2023-02-20T12:55:28;99405.88;;;4.95;71.26
22031;BME280;11179;52.106;21.024;2023-02-20T12:58:15;99399.22;;;5.02;71.00
22031;BME280;11179;52.106;21.024;2023-02-20T13:00:47;99396.31;;;5.09;71.09
22031;BME280;11179;52.106;21.024;2023-02-20T13:06:01;99407.91;;;5.16;70.82
22031;BME280;11179;52.106;21.024;2023-02-20T13:08:33;99406.00;;;5.17;70.38
22031;BME280;11179;52.106;21.024;2023-02-20T13:11:04;99401.13;;;5.19;70.31
22031;BME280;11179;52.106;21.024;2023-02-20T13:16:43;99418.00;;;5.21;70.26
22031;BME280;11179;52.106;21.024;2023-02-20T13:19:43;99398.13;;;5.20;69.98
22031;BME280;11179;52.106;21.024;2023-02-20T13:22:09;99392.06;;;5.13;70.32
22031;BME280;11179;52.106;21.024;2023-02-20T13:24:38;99392.38;;;5.17;70.05
22031;BME280;11179;52.106;21.024;2023-02-20T13:27:05;99407.38;;;5.19;70.29
22031;BME280;11179;52.106;21.024;2023-02-20T13:29:38;99397.06;;;5.21;70.13
22031;BME280;11179;52.106;21.024;2023-02-20T13:32:27;99386.28;;;5.26;70.12
22031;BME280;11179;52.106;21.024;2023-02-20T13:34:53;99393.88;;;5.24;70.15
22031;BME280;11179;52.106;21.024;2023-02-20T13:45:49;99350.56;;;5.39;69.71
22031;BME280;11179;52.106;21.024;2023-02-20T13:53:44;99322.41;;;5.50;69.46
22031;BME280;11179;52.106;21.024;2023-02-20T13:56:25;99318.13;;;5.55;69.52
22031;BME280;11179;52.106;21.024;2023-02-20T13:58:53;99327.16;;;5.60;69.30
22031;BME280;11179;52.106;21.024;2023-02-20T14:01:20;99308.44;;;5.64;69.54
22031;BME280;11179;52.106;21.024;2023-02-20T14:03:59;99308.75;;;5.67;69.14
22031;BME280;11179;52.106;21.024;2023-02-20T14:06:24;99307.44;;;5.70;68.97
22031;BME280;11179;52.106;21.024;2023-02-20T14:09:07;99308.31;;;5.75;69.17
22031;BME280;11179;52.106;21.024;2023-02-20T14:11:35;99305.34;;;5.77;69.10
22031;BME280;11179;52.106;21.024;2023-02-20T14:14:07;99303.81;;;5.86;68.92
22031;BME280;11179;52.106;21.024;2023-02-20T14:16:41;99296.75;;;5.85;68.75
22031;BME280;11179;52.106;21.024;2023-02-20T14:19:25;99304.09;;;5.84;68.56
22031;BME280;11179;52.106;21.024;2023-02-20T14:21:51;99292.41;;;5.89;68.57
22031;BME280;11179;52.106;21.024;2023-02-20T14:24:20;99292.25;;;5.96;68.31
22031;BME280;11179;52.106;21.024;2023-02-20T14:26:47;99276.72;;;5.96;68.37
22031;BME280;11179;52.106;21.024;2023-02-20T14:29:31;99286.28;;;5.99;68.26
22031;BME280;11179;52.106;21.024;2023-02-20T14:31:59;99277.06;;;6.05;68.50
22031;BME280;11179;52.106;21.024;2023-02-20T14:34:48;99260.72;;;6.05;68.39
22031;BME280;11179;52.106;21.024;2023-02-20T14:37:34;99258.31;;;6.08;68.06
22031;BME280;11179;52.106;21.024;2023-02-20T14:42:36;99273.63;;;6.14;67.93
22031;BME280;11179;52.106;21.024;2023-02-20T14:45:06;99279.41;;;6.18;68.26